KLM5209 KSUN-KLAS
Flight info
| Callsign | KLM5209 |
|---|---|
| Flight time | 1h 11m |
| Altitude | 37000 |
| Route | FLIYN1 LINNZ TRAKY ELY WINEN/N0466F380 CHOWW CHOWW4 |
| Aircraft | B77W/H-SDE1E2E3FGHIJ2J3J4J5M1RWXY/LB1D1 |
Departure
| Time | 2026-05-08 04:23 |
|---|---|
| Airport | Friedman Memorial Airport (KSUN) |
Arrival
| Time | 2026-05-08 05:35 |
|---|---|
| Airport | Harry Reid International Airport (KLAS) |
| Time | Latitude | Longitude | Altitude | Speed | Heading |
|---|---|---|---|---|---|
| 2026-05-08 03:44 | 43.49824 | -114.29265 | 5263 ft | 0 kts | 242° |
| 2026-05-08 04:12 | 43.49822 | -114.29270 | 5291 ft | 3 kts | 242° |
| 2026-05-08 04:12 | 43.49816 | -114.29285 | 5292 ft | 1 kts | 242° |
| 2026-05-08 04:12 | 43.49827 | -114.29257 | 5290 ft | 3 kts | 244° |
| 2026-05-08 04:12 | 43.49837 | -114.29227 | 5291 ft | 3 kts | 251° |
| 2026-05-08 04:13 | 43.49841 | -114.29197 | 5291 ft | 3 kts | 281° |
| 2026-05-08 04:13 | 43.49832 | -114.29175 | 5291 ft | 3 kts | 322° |
| 2026-05-08 04:13 | 43.49813 | -114.29156 | 5289 ft | 3 kts | 326° |
| 2026-05-08 04:13 | 43.49801 | -114.29145 | 5289 ft | 1 kts | 324° |
| 2026-05-08 04:18 | 43.49819 | -114.29162 | 5288 ft | 8 kts | 324° |
| 2026-05-08 04:18 | 43.49889 | -114.29230 | 5292 ft | 17 kts | 324° |
| 2026-05-08 04:18 | 43.50007 | -114.29346 | 5297 ft | 25 kts | 325° |
| 2026-05-08 04:19 | 43.50167 | -114.29500 | 5300 ft | 30 kts | 325° |
| 2026-05-08 04:19 | 43.50335 | -114.29664 | 5301 ft | 30 kts | 324° |
| 2026-05-08 04:19 | 43.50507 | -114.29820 | 5308 ft | 30 kts | 336° |
| 2026-05-08 04:19 | 43.50682 | -114.29968 | 5311 ft | 30 kts | 325° |
| 2026-05-08 04:20 | 43.50850 | -114.30128 | 5319 ft | 30 kts | 324° |
| 2026-05-08 04:20 | 43.51018 | -114.30293 | 5334 ft | 30 kts | 324° |
| 2026-05-08 04:20 | 43.51131 | -114.30403 | 5337 ft | 8 kts | 325° |
| 2026-05-08 04:20 | 43.51145 | -114.30414 | 5336 ft | 0 kts | 330° |
| 2026-05-08 04:21 | 43.51150 | -114.30417 | 5336 ft | 3 kts | 337° |
| 2026-05-08 04:21 | 43.51190 | -114.30402 | 5339 ft | 8 kts | 43° |
| 2026-05-08 04:21 | 43.51174 | -114.30331 | 5337 ft | 9 kts | 140° |
| 2026-05-08 04:21 | 43.51163 | -114.30319 | 5334 ft | 0 kts | 142° |
| 2026-05-08 04:22 | 43.51122 | -114.30277 | 5334 ft | 41 kts | 144° |
| 2026-05-08 04:22 | 43.50585 | -114.29757 | 5307 ft | 147 kts | 145° |
| 2026-05-08 04:23 | 43.49494 | -114.28710 | 5488 ft | 223 kts | 144° |
| 2026-05-08 04:23 | 43.48223 | -114.27615 | 7025 ft | 212 kts | 156° |
| 2026-05-08 04:23 | 43.46841 | -114.26872 | 7935 ft | 215 kts | 162° |
| 2026-05-08 04:23 | 43.45417 | -114.26217 | 8550 ft | 219 kts | 167° |
| 2026-05-08 04:24 | 43.43854 | -114.26209 | 8910 ft | 236 kts | 202° |
| 2026-05-08 04:24 | 43.42459 | -114.27436 | 9135 ft | 257 kts | 224° |
| 2026-05-08 04:24 | 43.41072 | -114.29225 | 9432 ft | 286 kts | 225° |
| 2026-05-08 04:24 | 43.39574 | -114.31109 | 10270 ft | 294 kts | 224° |
| 2026-05-08 04:25 | 43.38002 | -114.33065 | 10854 ft | 316 kts | 224° |
| 2026-05-08 04:25 | 43.36252 | -114.35122 | 11056 ft | 346 kts | 217° |
| 2026-05-08 04:25 | 43.34099 | -114.36788 | 11479 ft | 369 kts | 207° |
| 2026-05-08 04:25 | 43.31712 | -114.38249 | 12280 ft | 378 kts | 205° |
| 2026-05-08 04:26 | 43.29274 | -114.39676 | 13306 ft | 383 kts | 205° |
| 2026-05-08 04:26 | 43.26810 | -114.41144 | 14282 ft | 388 kts | 206° |
| 2026-05-08 04:26 | 43.24335 | -114.42661 | 15189 ft | 394 kts | 207° |
| 2026-05-08 04:26 | 43.24207 | -114.42740 | 15226 ft | 394 kts | 207° |
| 2026-05-08 04:27 | 43.21656 | -114.44338 | 16107 ft | 401 kts | 208° |
| 2026-05-08 04:27 | 43.19105 | -114.45955 | 16982 ft | 407 kts | 208° |
| 2026-05-08 04:27 | 43.16532 | -114.47590 | 17912 ft | 412 kts | 208° |
| 2026-05-08 04:27 | 43.13960 | -114.49223 | 18724 ft | 418 kts | 208° |
| 2026-05-08 04:28 | 43.11301 | -114.50908 | 19559 ft | 422 kts | 208° |
| 2026-05-08 04:28 | 43.08585 | -114.52498 | 20379 ft | 428 kts | 203° |
| 2026-05-08 04:28 | 43.05730 | -114.53771 | 21158 ft | 435 kts | 199° |
| 2026-05-08 04:28 | 43.02789 | -114.54890 | 21936 ft | 441 kts | 198° |
| 2026-05-08 04:29 | 43.01961 | -114.55191 | 22153 ft | 442 kts | 198° |
| 2026-05-08 04:29 | 42.99440 | -114.56102 | 22814 ft | 446 kts | 198° |
| 2026-05-08 04:29 | 42.96420 | -114.57206 | 23581 ft | 451 kts | 198° |
| 2026-05-08 04:29 | 42.93419 | -114.58334 | 24278 ft | 453 kts | 198° |
| 2026-05-08 04:30 | 42.90378 | -114.59501 | 24983 ft | 456 kts | 199° |
| 2026-05-08 04:30 | 42.87298 | -114.60700 | 25519 ft | 462 kts | 199° |
| 2026-05-08 04:30 | 42.84187 | -114.61924 | 26054 ft | 468 kts | 199° |
| 2026-05-08 04:30 | 42.81034 | -114.63169 | 26572 ft | 474 kts | 200° |
| 2026-05-08 04:31 | 42.77844 | -114.64429 | 27154 ft | 479 kts | 200° |
| 2026-05-08 04:31 | 42.74635 | -114.65696 | 27718 ft | 483 kts | 200° |
| 2026-05-08 04:31 | 42.71386 | -114.66975 | 28266 ft | 488 kts | 200° |
| 2026-05-08 04:31 | 42.68113 | -114.68263 | 29212 ft | 493 kts | 198° |
| 2026-05-08 04:32 | 42.61464 | -114.70874 | 29518 ft | 504 kts | 201° |
| 2026-05-08 04:32 | 42.58094 | -114.72192 | 30103 ft | 505 kts | 201° |
| 2026-05-08 04:32 | 42.54712 | -114.73511 | 30624 ft | 505 kts | 201° |
| 2026-05-08 04:33 | 42.51332 | -114.74828 | 31082 ft | 506 kts | 201° |
| 2026-05-08 04:33 | 42.47942 | -114.76149 | 31556 ft | 507 kts | 201° |
| 2026-05-08 04:33 | 42.44556 | -114.77467 | 32077 ft | 506 kts | 201° |
| 2026-05-08 04:33 | 42.41175 | -114.78782 | 32617 ft | 504 kts | 201° |
| 2026-05-08 04:34 | 42.37808 | -114.80090 | 33137 ft | 503 kts | 201° |
| 2026-05-08 04:34 | 42.34446 | -114.81395 | 33566 ft | 503 kts | 200° |
| 2026-05-08 04:34 | 42.31068 | -114.82707 | 33810 ft | 507 kts | 201° |
| 2026-05-08 04:34 | 42.27679 | -114.84023 | 34248 ft | 506 kts | 201° |
| 2026-05-08 04:35 | 42.24308 | -114.85327 | 34730 ft | 503 kts | 201° |
| 2026-05-08 04:35 | 42.20949 | -114.86624 | 35183 ft | 501 kts | 201° |
| 2026-05-08 04:35 | 42.17636 | -114.87903 | 35569 ft | 501 kts | 201° |
| 2026-05-08 04:35 | 42.14280 | -114.89199 | 35939 ft | 501 kts | 201° |
| 2026-05-08 04:36 | 42.10932 | -114.90490 | 36293 ft | 501 kts | 201° |
| 2026-05-08 04:36 | 42.07556 | -114.91790 | 36582 ft | 502 kts | 201° |
| 2026-05-08 04:36 | 42.04182 | -114.93088 | 36825 ft | 503 kts | 201° |
| 2026-05-08 04:36 | 42.00821 | -114.94379 | 36921 ft | 504 kts | 201° |
| 2026-05-08 04:37 | 41.94128 | -114.96948 | 36970 ft | 500 kts | 201° |
| 2026-05-08 04:37 | 41.87420 | -114.99512 | 36977 ft | 499 kts | 201° |
| 2026-05-08 04:38 | 41.80675 | -115.01481 | 36962 ft | 505 kts | 183° |
| 2026-05-08 04:38 | 41.77171 | -115.00930 | 36984 ft | 511 kts | 166° |
| 2026-05-08 04:38 | 41.73879 | -114.99111 | 36994 ft | 512 kts | 153° |
| 2026-05-08 04:39 | 41.67464 | -114.94663 | 37001 ft | 522 kts | 154° |
| 2026-05-08 04:39 | 41.60983 | -114.90345 | 36981 ft | 523 kts | 155° |
| 2026-05-08 04:40 | 41.54424 | -114.86099 | 36989 ft | 523 kts | 155° |
| 2026-05-08 04:40 | 41.47872 | -114.81867 | 36977 ft | 522 kts | 155° |
| 2026-05-08 04:41 | 41.41386 | -114.77683 | 36974 ft | 520 kts | 156° |
| 2026-05-08 04:41 | 41.34530 | -114.74908 | 36990 ft | 513 kts | 173° |
| 2026-05-08 04:42 | 41.27451 | -114.74459 | 36967 ft | 506 kts | 186° |
| 2026-05-08 04:42 | 41.20427 | -114.74933 | 36974 ft | 505 kts | 186° |
| 2026-05-08 04:43 | 41.13430 | -114.75384 | 36981 ft | 505 kts | 186° |
| 2026-05-08 04:43 | 41.06438 | -114.75776 | 36975 ft | 505 kts | 186° |
| 2026-05-08 04:44 | 40.99406 | -114.76142 | 36982 ft | 505 kts | 186° |
| 2026-05-08 04:44 | 40.92369 | -114.76504 | 36986 ft | 505 kts | 186° |
| 2026-05-08 04:45 | 40.85317 | -114.76874 | 36999 ft | 514 kts | 185° |
| 2026-05-08 04:45 | 40.78098 | -114.77252 | 36996 ft | 519 kts | 185° |
| 2026-05-08 04:46 | 40.70860 | -114.77626 | 36980 ft | 519 kts | 185° |
| 2026-05-08 04:46 | 40.64871 | -114.77935 | 36967 ft | 518 kts | 185° |
| 2026-05-08 04:47 | 40.56497 | -114.78367 | 36969 ft | 516 kts | 185° |
| 2026-05-08 04:47 | 40.50540 | -114.78674 | 36976 ft | 515 kts | 185° |
| 2026-05-08 04:48 | 40.43382 | -114.79044 | 36963 ft | 513 kts | 185° |
| 2026-05-08 04:48 | 40.36242 | -114.79412 | 36975 ft | 512 kts | 185° |
| 2026-05-08 04:49 | 40.29159 | -114.79776 | 36965 ft | 512 kts | 185° |
| 2026-05-08 04:49 | 40.22025 | -114.80142 | 36967 ft | 511 kts | 185° |
| 2026-05-08 04:50 | 40.14914 | -114.80505 | 36979 ft | 512 kts | 185° |
| 2026-05-08 04:50 | 40.07830 | -114.80867 | 36958 ft | 512 kts | 185° |
| 2026-05-08 04:51 | 40.00679 | -114.81233 | 36950 ft | 512 kts | 185° |
| 2026-05-08 04:51 | 39.93553 | -114.81595 | 36943 ft | 513 kts | 185° |
| 2026-05-08 04:52 | 39.86420 | -114.81955 | 36955 ft | 513 kts | 185° |
| 2026-05-08 04:52 | 39.79317 | -114.82314 | 36945 ft | 512 kts | 185° |
| 2026-05-08 04:53 | 39.72189 | -114.82674 | 36945 ft | 512 kts | 185° |
| 2026-05-08 04:53 | 39.65099 | -114.83031 | 36928 ft | 512 kts | 185° |
| 2026-05-08 04:54 | 39.57983 | -114.83389 | 36937 ft | 511 kts | 185° |
| 2026-05-08 04:54 | 39.50867 | -114.83746 | 36940 ft | 511 kts | 185° |
| 2026-05-08 04:55 | 39.43763 | -114.84102 | 36919 ft | 510 kts | 184° |
| 2026-05-08 04:55 | 39.36662 | -114.84457 | 37160 ft | 509 kts | 184° |
| 2026-05-08 04:56 | 39.29719 | -114.83337 | 37171 ft | 511 kts | 161° |
| 2026-05-08 04:56 | 39.26472 | -114.81471 | 37173 ft | 512 kts | 150° |
| 2026-05-08 04:56 | 39.23557 | -114.78833 | 37167 ft | 509 kts | 141° |
| 2026-05-08 04:57 | 39.18039 | -114.73087 | 37121 ft | 511 kts | 140° |
| 2026-05-08 04:57 | 39.12494 | -114.67363 | 37063 ft | 513 kts | 141° |
| 2026-05-08 04:58 | 39.06878 | -114.61683 | 36984 ft | 514 kts | 141° |
| 2026-05-08 04:58 | 39.01241 | -114.56039 | 36932 ft | 513 kts | 141° |
| 2026-05-08 04:59 | 38.95643 | -114.50447 | 36921 ft | 511 kts | 141° |
| 2026-05-08 04:59 | 38.90025 | -114.44838 | 36915 ft | 510 kts | 141° |
| 2026-05-08 05:00 | 38.84443 | -114.39275 | 36916 ft | 509 kts | 141° |
| 2026-05-08 05:00 | 38.78849 | -114.33711 | 36915 ft | 509 kts | 141° |
| 2026-05-08 05:01 | 38.73243 | -114.28146 | 36897 ft | 509 kts | 141° |
| 2026-05-08 05:01 | 38.67625 | -114.22582 | 36905 ft | 509 kts | 141° |
| 2026-05-08 05:02 | 38.62053 | -114.17074 | 36902 ft | 509 kts | 141° |
| 2026-05-08 05:02 | 38.56435 | -114.11532 | 36908 ft | 509 kts | 141° |
| 2026-05-08 05:03 | 38.50814 | -114.05998 | 36915 ft | 509 kts | 141° |
| 2026-05-08 05:03 | 38.45228 | -114.00509 | 36902 ft | 510 kts | 141° |
| 2026-05-08 05:04 | 38.39593 | -113.94984 | 36904 ft | 510 kts | 141° |
| 2026-05-08 05:04 | 38.33989 | -113.89500 | 36905 ft | 511 kts | 141° |
| 2026-05-08 05:05 | 38.28340 | -113.83981 | 36903 ft | 511 kts | 141° |
| 2026-05-08 05:05 | 38.22687 | -113.78472 | 36909 ft | 511 kts | 141° |
| 2026-05-08 05:06 | 38.17035 | -113.72975 | 36914 ft | 511 kts | 141° |
| 2026-05-08 05:06 | 38.11415 | -113.67518 | 36901 ft | 512 kts | 141° |
| 2026-05-08 05:07 | 38.05755 | -113.62033 | 36902 ft | 512 kts | 141° |
| 2026-05-08 05:07 | 38.00086 | -113.56549 | 36904 ft | 512 kts | 141° |
| 2026-05-08 05:08 | 37.97158 | -113.54007 | 36885 ft | 511 kts | 153° |
| 2026-05-08 05:08 | 37.93877 | -113.52514 | 36895 ft | 510 kts | 170° |
| 2026-05-08 05:08 | 37.90332 | -113.52179 | 36911 ft | 508 kts | 185° |
| 2026-05-08 05:08 | 37.86850 | -113.52878 | 36900 ft | 505 kts | 200° |
| 2026-05-08 05:09 | 37.80391 | -113.56108 | 36877 ft | 490 kts | 204° |
| 2026-05-08 05:09 | 37.77249 | -113.57698 | 36727 ft | 482 kts | 204° |
| 2026-05-08 05:09 | 37.74129 | -113.59252 | 36411 ft | 493 kts | 204° |
| 2026-05-08 05:10 | 37.70893 | -113.60842 | 36217 ft | 504 kts | 203° |
| 2026-05-08 05:10 | 37.64278 | -113.64042 | 35485 ft | 510 kts | 203° |
| 2026-05-08 05:10 | 37.60965 | -113.65630 | 35128 ft | 507 kts | 203° |
| 2026-05-08 05:11 | 37.57666 | -113.67209 | 34702 ft | 510 kts | 203° |
| 2026-05-08 05:11 | 37.54332 | -113.68806 | 34240 ft | 513 kts | 202° |
| 2026-05-08 05:11 | 37.51004 | -113.70399 | 33562 ft | 509 kts | 202° |
| 2026-05-08 05:11 | 37.47669 | -113.71995 | 32602 ft | 516 kts | 202° |
| 2026-05-08 05:12 | 37.44350 | -113.73584 | 32174 ft | 514 kts | 202° |
| 2026-05-08 05:12 | 37.41041 | -113.75164 | 31956 ft | 503 kts | 202° |
| 2026-05-08 05:12 | 37.37752 | -113.76735 | 31883 ft | 508 kts | 202° |
| 2026-05-08 05:13 | 37.31097 | -113.79910 | 31874 ft | 511 kts | 202° |
| 2026-05-08 05:13 | 37.27820 | -113.81469 | 31855 ft | 495 kts | 202° |
| 2026-05-08 05:13 | 37.24639 | -113.82980 | 31797 ft | 483 kts | 202° |
| 2026-05-08 05:13 | 37.21606 | -113.84420 | 31613 ft | 456 kts | 202° |
| 2026-05-08 05:14 | 37.18702 | -113.85796 | 31123 ft | 438 kts | 202° |
| 2026-05-08 05:14 | 37.15878 | -113.87136 | 30500 ft | 430 kts | 202° |
| 2026-05-08 05:14 | 37.13085 | -113.88463 | 29816 ft | 425 kts | 202° |
| 2026-05-08 05:14 | 37.10363 | -113.89755 | 28993 ft | 421 kts | 202° |
| 2026-05-08 05:15 | 37.07634 | -113.91048 | 28183 ft | 417 kts | 202° |
| 2026-05-08 05:15 | 37.04930 | -113.92329 | 27378 ft | 414 kts | 202° |
| 2026-05-08 05:15 | 37.02240 | -113.93601 | 26631 ft | 410 kts | 202° |
| 2026-05-08 05:15 | 36.99578 | -113.94859 | 25930 ft | 405 kts | 202° |
| 2026-05-08 05:16 | 36.96949 | -113.96100 | 25258 ft | 401 kts | 202° |
| 2026-05-08 05:16 | 36.94379 | -113.97312 | 24604 ft | 397 kts | 202° |
| 2026-05-08 05:16 | 36.91807 | -113.98525 | 23949 ft | 394 kts | 202° |
| 2026-05-08 05:16 | 36.89252 | -113.99728 | 23414 ft | 390 kts | 202° |
| 2026-05-08 05:17 | 36.86706 | -114.00927 | 22937 ft | 389 kts | 202° |
| 2026-05-08 05:17 | 36.84175 | -114.02118 | 22518 ft | 387 kts | 202° |
| 2026-05-08 05:17 | 36.81692 | -114.03285 | 22105 ft | 384 kts | 202° |
| 2026-05-08 05:17 | 36.79195 | -114.04458 | 21707 ft | 382 kts | 202° |
| 2026-05-08 05:18 | 36.76713 | -114.05623 | 21304 ft | 380 kts | 202° |
| 2026-05-08 05:18 | 36.74242 | -114.06783 | 20906 ft | 378 kts | 202° |
| 2026-05-08 05:18 | 36.71771 | -114.07941 | 20494 ft | 376 kts | 202° |
| 2026-05-08 05:18 | 36.69354 | -114.09073 | 20095 ft | 375 kts | 202° |
| 2026-05-08 05:19 | 36.66917 | -114.10214 | 19699 ft | 373 kts | 201° |
| 2026-05-08 05:19 | 36.64487 | -114.11353 | 19313 ft | 372 kts | 202° |
| 2026-05-08 05:19 | 36.62069 | -114.12483 | 18917 ft | 371 kts | 201° |
| 2026-05-08 05:19 | 36.59646 | -114.13615 | 18490 ft | 371 kts | 201° |
| 2026-05-08 05:20 | 36.57230 | -114.14743 | 18072 ft | 370 kts | 201° |
| 2026-05-08 05:20 | 36.54826 | -114.15864 | 17625 ft | 368 kts | 201° |
| 2026-05-08 05:20 | 36.52456 | -114.16968 | 17202 ft | 366 kts | 201° |
| 2026-05-08 05:20 | 36.50074 | -114.18079 | 16800 ft | 364 kts | 201° |
| 2026-05-08 05:21 | 36.47703 | -114.19183 | 16387 ft | 362 kts | 201° |
| 2026-05-08 05:21 | 36.45372 | -114.20268 | 15961 ft | 352 kts | 202° |
| 2026-05-08 05:21 | 36.43093 | -114.21327 | 15596 ft | 347 kts | 202° |
| 2026-05-08 05:21 | 36.40878 | -114.22365 | 15389 ft | 337 kts | 204° |
| 2026-05-08 05:22 | 36.38933 | -114.23861 | 15109 ft | 325 kts | 228° |
| 2026-05-08 05:22 | 36.37519 | -114.25996 | 14773 ft | 317 kts | 236° |
| 2026-05-08 05:22 | 36.36168 | -114.28167 | 14427 ft | 317 kts | 235° |
| 2026-05-08 05:22 | 36.34806 | -114.30332 | 14078 ft | 317 kts | 235° |
| 2026-05-08 05:23 | 36.33443 | -114.32487 | 13718 ft | 317 kts | 235° |
| 2026-05-08 05:23 | 36.32076 | -114.34640 | 13324 ft | 318 kts | 235° |
| 2026-05-08 05:23 | 36.30709 | -114.36789 | 12938 ft | 317 kts | 234° |
| 2026-05-08 05:23 | 36.29337 | -114.38941 | 12543 ft | 317 kts | 234° |
| 2026-05-08 05:24 | 36.27987 | -114.41054 | 12185 ft | 316 kts | 234° |
| 2026-05-08 05:24 | 36.26622 | -114.43188 | 11833 ft | 315 kts | 233° |
| 2026-05-08 05:24 | 36.25257 | -114.45318 | 11469 ft | 315 kts | 233° |
| 2026-05-08 05:24 | 36.23885 | -114.47429 | 11113 ft | 314 kts | 233° |
| 2026-05-08 05:25 | 36.22510 | -114.49537 | 10748 ft | 314 kts | 233° |
| 2026-05-08 05:25 | 36.21146 | -114.51622 | 10383 ft | 308 kts | 233° |
| 2026-05-08 05:25 | 36.19817 | -114.53656 | 10027 ft | 299 kts | 233° |
| 2026-05-08 05:25 | 36.18528 | -114.55629 | 9691 ft | 292 kts | 233° |
| 2026-05-08 05:26 | 36.17252 | -114.57584 | 9358 ft | 292 kts | 233° |
| 2026-05-08 05:26 | 36.15975 | -114.59535 | 9016 ft | 290 kts | 233° |
| 2026-05-08 05:26 | 36.14728 | -114.61444 | 8814 ft | 286 kts | 232° |
| 2026-05-08 05:26 | 36.13482 | -114.63350 | 8663 ft | 285 kts | 233° |
| 2026-05-08 05:27 | 36.12238 | -114.65251 | 8535 ft | 280 kts | 232° |
| 2026-05-08 05:27 | 36.11045 | -114.67068 | 8355 ft | 264 kts | 233° |
| 2026-05-08 05:27 | 36.09919 | -114.68781 | 8197 ft | 248 kts | 233° |
| 2026-05-08 05:27 | 36.08854 | -114.70403 | 8099 ft | 242 kts | 233° |
| 2026-05-08 05:28 | 36.07802 | -114.72050 | 7979 ft | 242 kts | 240° |
| 2026-05-08 05:28 | 36.07307 | -114.73993 | 7736 ft | 239 kts | 270° |
| 2026-05-08 05:28 | 36.07377 | -114.76035 | 7508 ft | 239 kts | 272° |
| 2026-05-08 05:28 | 36.07396 | -114.78088 | 7239 ft | 239 kts | 270° |
| 2026-05-08 05:29 | 36.07391 | -114.80087 | 6952 ft | 231 kts | 270° |
| 2026-05-08 05:29 | 36.07387 | -114.82036 | 6686 ft | 222 kts | 269° |
| 2026-05-08 05:29 | 36.07385 | -114.83941 | 6427 ft | 222 kts | 269° |
| 2026-05-08 05:29 | 36.07383 | -114.85856 | 6113 ft | 228 kts | 269° |
| 2026-05-08 05:30 | 36.07383 | -114.87818 | 5839 ft | 228 kts | 269° |
| 2026-05-08 05:30 | 36.07382 | -114.89784 | 5503 ft | 227 kts | 269° |
| 2026-05-08 05:30 | 36.07381 | -114.91696 | 5216 ft | 215 kts | 269° |
| 2026-05-08 05:30 | 36.07380 | -114.93475 | 4944 ft | 199 kts | 268° |
| 2026-05-08 05:31 | 36.07379 | -114.95119 | 4697 ft | 183 kts | 269° |
| 2026-05-08 05:31 | 36.07378 | -114.96613 | 4465 ft | 168 kts | 268° |
| 2026-05-08 05:31 | 36.07376 | -114.98042 | 4284 ft | 164 kts | 268° |
| 2026-05-08 05:31 | 36.07375 | -114.99394 | 4098 ft | 155 kts | 268° |
| 2026-05-08 05:32 | 36.07374 | -115.00749 | 3902 ft | 155 kts | 268° |
| 2026-05-08 05:32 | 36.07372 | -115.02068 | 3711 ft | 151 kts | 270° |
| 2026-05-08 05:32 | 36.07371 | -115.03327 | 3517 ft | 147 kts | 270° |
| 2026-05-08 05:32 | 36.07371 | -115.04610 | 3354 ft | 150 kts | 269° |
| 2026-05-08 05:33 | 36.07370 | -115.05907 | 3184 ft | 151 kts | 267° |
| 2026-05-08 05:33 | 36.07369 | -115.07226 | 2994 ft | 154 kts | 268° |
| 2026-05-08 05:33 | 36.07370 | -115.08527 | 2780 ft | 149 kts | 265° |
| 2026-05-08 05:33 | 36.07383 | -115.09828 | 2611 ft | 152 kts | 265° |
| 2026-05-08 05:34 | 36.07379 | -115.11133 | 2415 ft | 151 kts | 262° |
| 2026-05-08 05:34 | 36.07364 | -115.12412 | 2209 ft | 151 kts | 266° |
| 2026-05-08 05:34 | 36.07360 | -115.13676 | 2124 ft | 139 kts | 271° |
| 2026-05-08 05:34 | 36.07364 | -115.14653 | 2130 ft | 87 kts | 270° |
| 2026-05-08 05:35 | 36.07367 | -115.15179 | 2123 ft | 41 kts | 276° |
| 2026-05-08 05:35 | 36.07418 | -115.15388 | 2127 ft | 35 kts | 295° |
| 2026-05-08 05:35 | 36.07467 | -115.15502 | 2127 ft | 0 kts | 298° |
| 2026-05-08 05:35 | 36.07467 | -115.15503 | 2127 ft | 0 kts | 298° |
| 2026-05-08 05:36 | 36.07482 | -115.15534 | 2127 ft | 6 kts | 302° |
| 2026-05-08 05:36 | 36.07499 | -115.15565 | 2127 ft | 7 kts | 306° |
| 2026-05-08 05:36 | 36.07532 | -115.15614 | 2128 ft | 8 kts | 313° |
| 2026-05-08 05:36 | 36.07585 | -115.15680 | 2130 ft | 16 kts | 315° |
| 2026-05-08 05:37 | 36.07671 | -115.15782 | 2128 ft | 15 kts | 320° |
| 2026-05-08 05:37 | 36.07737 | -115.15822 | 2128 ft | 9 kts | 352° |
| 2026-05-08 05:37 | 36.07796 | -115.15799 | 2129 ft | 9 kts | 43° |
| 2026-05-08 05:37 | 36.07804 | -115.15720 | 2129 ft | 10 kts | 89° |
| 2026-05-08 05:38 | 36.07804 | -115.15637 | 2129 ft | 10 kts | 90° |
| 2026-05-08 05:38 | 36.07804 | -115.15552 | 2130 ft | 10 kts | 90° |
| 2026-05-08 05:38 | 36.07804 | -115.15466 | 2133 ft | 10 kts | 89° |
| 2026-05-08 05:38 | 36.07805 | -115.15382 | 2134 ft | 10 kts | 89° |
| 2026-05-08 05:39 | 36.07806 | -115.15296 | 2133 ft | 10 kts | 91° |
| 2026-05-08 05:39 | 36.07804 | -115.15198 | 2131 ft | 13 kts | 90° |
| 2026-05-08 05:39 | 36.07802 | -115.15083 | 2130 ft | 14 kts | 92° |
| 2026-05-08 05:39 | 36.07796 | -115.14968 | 2131 ft | 14 kts | 95° |
| 2026-05-08 05:40 | 36.07787 | -115.14852 | 2129 ft | 14 kts | 95° |
| 2026-05-08 05:40 | 36.07776 | -115.14721 | 2129 ft | 17 kts | 96° |
| 2026-05-08 05:40 | 36.07765 | -115.14572 | 2125 ft | 18 kts | 94° |
| 2026-05-08 05:40 | 36.07758 | -115.14423 | 2130 ft | 18 kts | 94° |
| 2026-05-08 05:41 | 36.07753 | -115.14304 | 2125 ft | 9 kts | 90° |
| 2026-05-08 05:41 | 36.07753 | -115.14232 | 2124 ft | 9 kts | 90° |
| 2026-05-08 05:41 | 36.07772 | -115.14167 | 2128 ft | 9 kts | 31° |
| 2026-05-08 05:41 | 36.07843 | -115.14161 | 2125 ft | 11 kts | 2° |
| 2026-05-08 05:42 | 36.07926 | -115.14159 | 2123 ft | 12 kts | 0° |
| 2026-05-08 05:42 | 36.08018 | -115.14159 | 2118 ft | 15 kts | 359° |
| 2026-05-08 05:42 | 36.08134 | -115.14160 | 2111 ft | 19 kts | 360° |
| 2026-05-08 05:42 | 36.08251 | -115.14159 | 2105 ft | 8 kts | 360° |
| 2026-05-08 05:43 | 36.08312 | -115.14160 | 2103 ft | 10 kts | 0° |
| 2026-05-08 05:43 | 36.08376 | -115.14133 | 2100 ft | 11 kts | 39° |
| 2026-05-08 05:43 | 36.08433 | -115.14068 | 2095 ft | 8 kts | 44° |
| 2026-05-08 05:43 | 36.08459 | -115.14020 | 2093 ft | 8 kts | 58° |
| 2026-05-08 05:44 | 36.08504 | -115.14007 | 2091 ft | 5 kts | 358° |
| 2026-05-08 05:44 | 36.08522 | -115.14006 | 2090 ft | 0 kts | 3° |